Time;durP1;ratioP1;P1;durP2;ratioP2;P2;SDS_P1;SDS_P2;PMS_P1;PMS_P2;Temp;Humidity;BMP_temperature;BMP_pressure;BME280_temperature;BME280_humidity;BME280_pressure;Samples;Min_cycle;Max_cycle;Signal;HPM_P1;HPM_P2
2021/07/30 00:00:19;;;;;;;25.48;13.10;;;12.40;99.90;;;;;;4194063;28;20021;-76
2021/07/30 00:02:19;;;;;;;20.85;13.55;;;12.40;99.90;;;;;;4210973;28;20043;-77
2021/07/30 00:04:20;;;;;;;22.30;13.52;;;12.30;99.90;;;;;;4194609;28;20033;-76
2021/07/30 00:06:21;;;;;;;21.27;13.35;;;12.50;99.90;;;;;;4212264;28;20673;-77
2021/07/30 00:08:21;;;;;;;21.27;12.77;;;12.40;99.90;;;;;;4196672;28;20036;-76
2021/07/30 00:10:22;;;;;;;25.38;14.23;;;12.50;99.90;;;;;;4192032;28;20032;-76
2021/07/30 00:12:23;;;;;;;25.23;13.85;;;12.20;99.90;;;;;;4214070;28;20032;-76
2021/07/30 00:14:24;;;;;;;21.75;14.27;;;12.20;99.90;;;;;;4210129;28;20062;-77
2021/07/30 00:16:24;;;;;;;29.00;13.85;;;12.30;99.90;;;;;;4210749;28;20051;-79
2021/07/30 00:18:25;;;;;;;21.95;12.98;;;12.20;99.90;;;;;;4210431;28;20532;-76
2021/07/30 00:20:26;;;;;;;23.10;13.10;;;12.00;99.90;;;;;;4190686;28;20032;-76
2021/07/30 00:22:26;;;;;;;19.42;13.27;;;12.10;99.90;;;;;;4193600;28;20048;-77
2021/07/30 00:24:27;;;;;;;26.65;14.65;;;12.00;99.90;;;;;;4178701;28;20082;-76
2021/07/30 00:26:27;;;;;;;28.35;14.93;;;12.10;99.90;;;;;;4193813;28;20496;-76
2021/07/30 00:28:28;;;;;;;25.65;13.63;;;12.00;99.90;;;;;;4210048;28;20024;-76
2021/07/30 00:30:29;;;;;;;27.08;13.95;;;12.10;99.90;;;;;;4210590;28;20032;-77
2021/07/30 00:32:30;;;;;;;21.23;14.70;;;12.10;99.90;;;;;;4212532;28;20028;-76
2021/07/30 00:34:30;;;;;;;19.70;13.70;;;12.30;99.90;;;;;;4210346;28;20028;-77
2021/07/30 00:36:31;;;;;;;20.33;13.50;;;12.00;99.90;;;;;;4194860;28;20021;-76
2021/07/30 00:38:32;;;;;;;19.23;13.77;;;12.00;99.90;;;;;;4193153;28;20036;-76
2021/07/30 00:40:34;;;;;;;20.15;12.98;;;12.10;99.90;;;;;;4192209;28;20036;-75
2021/07/30 00:42:36;;;;;;;31.70;14.70;;;12.20;99.90;;;;;;4212188;28;20040;-77
2021/07/30 00:44:36;;;;;;;21.80;13.75;;;12.30;99.90;;;;;;4210279;28;20042;-76
2021/07/30 00:46:37;;;;;;;18.98;11.77;;;12.20;99.90;;;;;;4193043;28;20116;-75
2021/07/30 00:48:38;;;;;;;25.80;13.98;;;11.30;99.90;;;;;;4210337;28;20051;-76
2021/07/30 00:50:41;;;;;;;20.13;12.50;;;12.20;99.90;;;;;;4209973;28;20035;-77
2021/07/30 00:52:42;;;;;;;21.58;12.88;;;12.20;99.90;;;;;;4209586;28;20028;-77
2021/07/30 00:54:43;;;;;;;19.20;12.68;;;12.10;99.90;;;;;;4210362;28;20460;-76
2021/07/30 00:56:43;;;;;;;20.33;12.25;;;12.30;99.90;;;;;;4208399;28;20042;-77
2021/07/30 00:58:44;;;;;;;21.67;12.70;;;12.30;99.90;;;;;;4189629;28;20972;-78
2021/07/30 01:00:45;;;;;;;31.80;12.25;;;12.30;99.90;;;;;;4208076;28;20421;-77
2021/07/30 01:02:46;;;;;;;19.98;12.60;;;12.50;99.90;;;;;;4191666;28;20040;-76
2021/07/30 01:04:47;;;;;;;22.08;11.77;;;12.30;99.90;;;;;;4209051;28;20117;-76
2021/07/30 01:06:48;;;;;;;16.58;10.98;;;12.60;99.90;;;;;;4212083;28;20036;-76
2021/07/30 01:08:51;;;;;;;36.53;13.18;;;12.60;99.90;;;;;;4189940;28;20431;-76
2021/07/30 01:10:52;;;;;;;15.63;11.98;;;12.40;99.90;;;;;;4203361;28;20524;-76
2021/07/30 01:12:54;;;;;;;20.40;12.65;;;12.70;99.90;;;;;;4208094;28;20032;-76
2021/07/30 01:14:55;;;;;;;18.30;10.90;;;12.60;99.90;;;;;;4192437;28;20119;-76
2021/07/30 01:16:56;;;;;;;26.90;13.18;;;12.40;99.90;;;;;;4190425;28;20040;-76
2021/07/30 01:18:56;;;;;;;20.52;12.98;;;12.60;99.90;;;;;;4208043;28;20039;-76
2021/07/30 01:21:08;;;;;;;25.50;13.45;;;12.20;99.90;;;;;;4209248;28;20042;-75
2021/07/30 01:23:13;;;;;;;24.92;12.90;;;12.90;99.90;;;;;;4212704;28;20033;-76
2021/07/30 01:25:14;;;;;;;26.00;13.10;;;12.30;99.90;;;;;;4210883;28;20024;-76
2021/07/30 01:27:14;;;;;;;19.60;12.43;;;12.80;99.90;;;;;;4211419;28;20150;-76
2021/07/30 01:29:16;;;;;;;20.98;11.43;;;12.90;99.90;;;;;;4213228;28;20028;-76
2021/07/30 01:31:17;;;;;;;20.77;12.93;;;12.20;99.90;;;;;;4213220;28;20733;-77
2021/07/30 01:33:18;;;;;;;19.77;11.88;;;12.40;99.90;;;;;;4211679;28;20115;-76
2021/07/30 01:35:20;;;;;;;22.25;11.50;;;12.20;99.90;;;;;;4206565;28;20044;-76
2021/07/30 01:37:24;;;;;;;19.08;11.80;;;12.40;99.90;;;;;;4192266;28;20063;-76
2021/07/30 01:39:25;;;;;;;24.98;12.10;;;12.30;99.90;;;;;;4210070;28;20181;-76
2021/07/30 01:41:26;;;;;;;18.60;11.93;;;12.20;99.90;;;;;;4211086;28;20043;-76
2021/07/30 01:43:27;;;;;;;21.55;13.52;;;12.30;99.90;;;;;;4192752;28;20124;-76
2021/07/30 01:45:27;;;;;;;20.23;12.02;;;12.10;99.90;;;;;;4190138;28;20449;-76
2021/07/30 01:47:28;;;;;;;15.48;11.02;;;12.30;99.90;;;;;;4208456;28;20029;-76
2021/07/30 01:49:28;;;;;;;24.35;13.20;;;12.20;99.90;;;;;;4193864;28;20392;-76
2021/07/30 01:51:29;;;;;;;18.70;10.68;;;12.20;99.90;;;;;;4187499;28;20033;-76
2021/07/30 01:53:30;;;;;;;20.83;11.48;;;12.60;99.90;;;;;;4212186;28;20032;-76
2021/07/30 01:55:30;;;;;;;23.70;12.63;;;12.10;99.90;;;;;;4204025;28;20442;-76
2021/07/30 01:57:31;;;;;;;24.63;12.73;;;12.40;99.90;;;;;;4212757;28;20028;-76
2021/07/30 01:59:32;;;;;;;19.08;12.07;;;12.50;99.90;;;;;;4207953;28;20469;-77
2021/07/30 02:01:32;;;;;;;21.42;12.13;;;12.60;99.90;;;;;;4210942;28;20082;-76
2021/07/30 02:03:33;;;;;;;23.45;12.75;;;11.80;99.90;;;;;;4210825;28;20110;-75
2021/07/30 02:05:37;;;;;;;19.00;11.65;;;12.70;99.90;;;;;;4194886;28;20108;-77
2021/07/30 02:07:38;;;;;;;18.95;11.30;;;12.40;99.90;;;;;;4192585;28;20057;-77
2021/07/30 02:09:39;;;;;;;23.42;11.10;;;12.70;99.90;;;;;;4193941;28;20032;-77
2021/07/30 02:11:41;;;;;;;15.07;10.65;;;12.50;99.90;;;;;;4192812;28;20044;-76
2021/07/30 02:16:02;;;;;;;16.25;11.32;;;12.40;99.90;;;;;;4208260;28;20039;-76
2021/07/30 02:18:03;;;;;;;24.10;12.90;;;12.60;99.90;;;;;;4192173;28;20040;-75
2021/07/30 02:20:04;;;;;;;21.48;11.98;;;13.00;99.90;;;;;;4208881;28;20016;-75
2021/07/30 02:22:05;;;;;;;18.25;11.40;;;12.60;99.90;;;;;;4208177;28;20039;-78
2021/07/30 02:24:06;;;;;;;22.65;12.27;;;12.30;99.90;;;;;;4211101;28;20046;-76
2021/07/30 02:26:07;;;;;;;19.85;11.73;;;12.80;99.90;;;;;;4191752;28;20029;-76
2021/07/30 02:28:08;;;;;;;19.10;11.38;;;12.70;99.90;;;;;;4211146;28;20020;-78
2021/07/30 02:30:09;;;;;;;21.00;11.60;;;12.80;99.90;;;;;;4190978;28;20412;-77
2021/07/30 02:32:09;;;;;;;19.50;12.50;;;12.70;99.90;;;;;;4208948;28;20077;-78
2021/07/30 02:34:10;;;;;;;18.95;12.82;;;12.50;99.90;;;;;;4190279;28;20090;-78
2021/07/30 02:36:11;;;;;;;23.00;13.90;;;12.40;99.90;;;;;;4192799;28;20379;-77
2021/07/30 02:38:11;;;;;;;21.58;12.75;;;12.60;99.90;;;;;;4210568;28;20089;-78
2021/07/30 02:40:13;;;;;;;22.52;14.85;;;12.10;99.90;;;;;;4212607;28;20032;-78
2021/07/30 02:42:13;;;;;;;25.40;14.02;;;12.40;99.90;;;;;;4189952;28;20045;-78
2021/07/30 02:44:16;;;;;;;20.27;12.23;;;12.20;99.90;;;;;;4192052;28;20111;-79
2021/07/30 02:46:17;;;;;;;20.60;13.50;;;12.10;99.90;;;;;;4191319;28;20048;-78
2021/07/30 02:48:18;;;;;;;22.27;13.73;;;12.00;99.90;;;;;;4189713;28;20035;-75
2021/07/30 02:50:19;;;;;;;18.65;12.55;;;12.20;99.90;;;;;;4207673;28;20032;-78
2021/07/30 02:52:19;;;;;;;19.67;12.63;;;12.30;99.90;;;;;;4193222;28;20051;-78
2021/07/30 02:54:20;;;;;;;21.77;13.50;;;12.10;99.90;;;;;;4190804;28;20101;-77
2021/07/30 02:56:21;;;;;;;20.50;11.77;;;12.20;99.90;;;;;;4206769;28;20124;-78
2021/07/30 02:58:21;;;;;;;21.17;13.93;;;12.10;99.90;;;;;;4209649;28;20423;-78
2021/07/30 03:00:22;;;;;;;26.08;12.65;;;12.20;99.90;;;;;;4210836;28;20038;-78
2021/07/30 03:02:23;;;;;;;29.50;13.57;;;12.30;99.90;;;;;;4189540;28;20099;-77
2021/07/30 03:04:23;;;;;;;24.23;12.68;;;12.20;99.90;;;;;;4193233;28;20195;-77
2021/07/30 03:06:24;;;;;;;20.33;11.77;;;12.20;99.90;;;;;;4191434;28;20040;-77
2021/07/30 03:08:26;;;;;;;18.63;12.73;;;12.20;99.90;;;;;;4209172;28;20039;-78
2021/07/30 03:10:26;;;;;;;23.05;12.93;;;12.10;99.90;;;;;;4210542;28;20036;-78
2021/07/30 03:12:27;;;;;;;19.35;13.63;;;12.20;99.90;;;;;;4191727;28;20522;-78
2021/07/30 03:14:28;;;;;;;22.10;14.85;;;12.20;99.90;;;;;;4208099;28;20028;-78
2021/07/30 03:16:29;;;;;;;28.58;14.80;;;12.10;99.90;;;;;;4191209;28;20059;-78
2021/07/30 03:18:29;;;;;;;31.73;14.95;;;12.10;99.90;;;;;;4193695;28;20419;-78
2021/07/30 03:20:30;;;;;;;24.05;14.95;;;12.10;99.90;;;;;;4209668;28;20028;-77
2021/07/30 03:22:31;;;;;;;21.23;13.82;;;12.20;99.90;;;;;;4189957;28;20127;-78
2021/07/30 03:24:31;;;;;;;25.20;14.70;;;12.00;99.90;;;;;;4212147;28;20051;-78
2021/07/30 03:26:36;;;;;;;21.25;13.98;;;11.80;99.90;;;;;;4211896;28;20043;-78
2021/07/30 03:28:37;;;;;;;26.55;14.18;;;12.00;99.90;;;;;;4214405;28;20387;-78
2021/07/30 03:30:38;;;;;;;25.13;15.38;;;11.80;99.90;;;;;;4196329;28;20054;-78
2021/07/30 03:32:39;;;;;;;21.65;14.77;;;11.90;99.90;;;;;;4208216;28;20035;-78
2021/07/30 03:34:39;;;;;;;24.90;14.77;;;12.00;99.90;;;;;;4213206;28;20391;-79
2021/07/30 03:36:41;;;;;;;25.15;15.30;;;11.60;99.90;;;;;;4191942;28;20028;-78
2021/07/30 03:38:41;;;;;;;21.77;15.27;;;12.00;99.90;;;;;;4190426;28;20029;-78
2021/07/30 03:40:42;;;;;;;32.17;15.68;;;12.10;99.90;;;;;;4213531;28;20024;-78
2021/07/30 03:42:43;;;;;;;26.35;15.70;;;11.90;99.90;;;;;;4214765;28;20036;-78
2021/07/30 03:44:44;;;;;;;19.63;13.45;;;11.90;99.90;;;;;;4209602;28;20047;-78
2021/07/30 03:46:44;;;;;;;26.40;15.23;;;11.60;99.90;;;;;;4213611;28;20129;-77
2021/07/30 03:48:45;;;;;;;25.30;15.48;;;11.60;99.90;;;;;;4210618;28;20036;-78
2021/07/30 03:50:45;;;;;;;23.38;16.33;;;11.70;99.90;;;;;;4194817;28;20479;-77
2021/07/30 03:52:46;;;;;;;23.25;14.73;;;11.70;99.90;;;;;;4212247;28;20483;-77
2021/07/30 03:54:47;;;;;;;29.70;16.35;;;11.70;99.90;;;;;;4196421;28;20029;-77
2021/07/30 03:56:48;;;;;;;27.40;15.48;;;11.70;99.90;;;;;;4210335;28;20040;-77
2021/07/30 03:58:49;;;;;;;24.05;15.40;;;11.70;99.90;;;;;;4194683;28;20391;-77
2021/07/30 04:00:50;;;;;;;23.42;14.52;;;11.70;99.90;;;;;;4212653;28;20032;-77
2021/07/30 04:02:50;;;;;;;21.15;14.90;;;11.70;99.90;;;;;;4211480;28;20055;-78
2021/07/30 04:04:52;;;;;;;22.35;14.25;;;11.80;99.90;;;;;;4212760;28;20043;-78
2021/07/30 04:06:52;;;;;;;27.75;16.50;;;11.80;99.90;;;;;;4210665;28;20089;-77
2021/07/30 04:08:53;;;;;;;25.85;15.00;;;11.70;99.90;;;;;;4215415;28;20430;-77
2021/07/30 04:10:54;;;;;;;26.98;14.40;;;11.90;99.90;;;;;;4210264;28;20028;-78
2021/07/30 04:12:54;;;;;;;23.05;14.90;;;12.00;99.90;;;;;;4212527;28;20032;-78
2021/07/30 04:14:55;;;;;;;21.30;13.20;;;12.10;99.90;;;;;;4212750;28;20036;-77
2021/07/30 04:16:55;;;;;;;25.33;15.20;;;12.20;99.90;;;;;;4194906;28;20051;-77
2021/07/30 04:18:56;;;;;;;22.90;13.35;;;12.30;99.90;;;;;;4210346;28;20039;-78
2021/07/30 04:20:57;;;;;;;20.02;13.20;;;12.10;99.90;;;;;;4214058;28;20685;-78
2021/07/30 04:22:57;;;;;;;19.85;14.02;;;12.00;99.90;;;;;;4191803;28;20068;-78
2021/07/30 04:25:00;;;;;;;24.92;14.57;;;12.10;99.90;;;;;;4193515;28;20036;-78
2021/07/30 04:27:00;;;;;;;20.73;13.50;;;12.30;99.90;;;;;;4191672;28;20068;-77
2021/07/30 04:29:01;;;;;;;23.55;14.35;;;12.50;99.90;;;;;;4193433;28;20091;-77
2021/07/30 04:31:05;;;;;;;21.77;13.27;;;12.30;99.90;;;;;;4211578;28;20043;-77
2021/07/30 04:33:09;;;;;;;28.50;15.73;;;12.40;99.90;;;;;;4210468;28;20024;-77
2021/07/30 04:35:10;;;;;;;21.55;12.80;;;12.40;99.90;;;;;;4207403;28;20059;-77
2021/07/30 04:37:10;;;;;;;19.58;12.82;;;12.40;99.90;;;;;;4193320;28;20033;-78
2021/07/30 04:39:11;;;;;;;19.55;13.25;;;12.40;99.90;;;;;;4191309;28;20028;-77
2021/07/30 04:41:12;;;;;;;20.90;13.02;;;12.40;99.90;;;;;;4193460;28;20064;-78
2021/07/30 04:43:13;;;;;;;16.38;12.57;;;12.50;99.90;;;;;;4211870;28;20383;-78
2021/07/30 04:45:14;;;;;;;23.13;12.82;;;12.40;99.90;;;;;;4211439;28;20133;-77
2021/07/30 04:47:14;;;;;;;19.83;11.95;;;12.50;99.90;;;;;;4191767;28;20036;-78
2021/07/30 04:49:15;;;;;;;26.02;13.95;;;12.50;99.90;;;;;;4190882;28;20134;-78
2021/07/30 04:51:18;;;;;;;18.08;12.25;;;12.60;99.90;;;;;;4212300;28;20363;-78
2021/07/30 04:53:18;;;;;;;21.98;12.25;;;12.80;99.90;;;;;;4193239;28;20024;-78
2021/07/30 04:55:19;;;;;;;27.67;14.15;;;12.70;99.90;;;;;;4209159;28;20113;-78
2021/07/30 04:57:19;;;;;;;24.95;13.23;;;12.60;99.90;;;;;;4212257;28;20028;-77
2021/07/30 04:59:20;;;;;;;23.60;13.77;;;12.80;99.90;;;;;;4194499;28;20021;-77
2021/07/30 05:01:21;;;;;;;23.65;12.70;;;12.90;99.90;;;;;;4206867;28;20090;-78
2021/07/30 05:03:22;;;;;;;20.05;11.77;;;12.60;99.90;;;;;;4212201;28;20528;-77
2021/07/30 05:05:22;;;;;;;23.02;12.55;;;12.80;99.90;;;;;;4211629;28;20052;-78
2021/07/30 05:07:23;;;;;;;18.05;12.65;;;12.90;99.90;;;;;;4200889;28;20104;-77
2021/07/30 05:09:24;;;;;;;22.30;13.38;;;12.90;99.90;;;;;;4208086;28;20032;-78
2021/07/30 05:11:24;;;;;;;19.92;13.02;;;12.90;99.90;;;;;;4210357;28;20438;-77
2021/07/30 05:13:25;;;;;;;17.83;11.73;;;12.90;99.90;;;;;;4210114;28;20032;-79
2021/07/30 05:15:26;;;;;;;20.45;12.18;;;12.80;99.90;;;;;;4210756;28;20368;-78
2021/07/30 05:17:26;;;;;;;22.45;12.50;;;12.90;99.90;;;;;;4190487;28;20041;-78
2021/07/30 05:19:27;;;;;;;20.55;13.02;;;13.00;99.90;;;;;;4212685;28;20115;-78
2021/07/30 05:21:28;;;;;;;23.92;13.07;;;13.10;99.90;;;;;;4209857;28;20025;-78
2021/07/30 05:23:28;;;;;;;24.67;13.30;;;13.00;99.90;;;;;;4192070;28;20047;-78
2021/07/30 05:25:29;;;;;;;22.42;14.38;;;12.70;99.90;;;;;;4193033;28;20040;-77
2021/07/30 05:27:30;;;;;;;22.30;13.73;;;13.00;99.90;;;;;;4194757;28;20025;-78
2021/07/30 05:29:30;;;;;;;25.73;11.93;;;13.30;99.90;;;;;;4188733;28;20039;-77
2021/07/30 05:31:31;;;;;;;20.35;12.23;;;13.30;99.90;;;;;;4193314;28;20028;-78
2021/07/30 05:33:32;;;;;;;18.27;12.02;;;13.70;99.90;;;;;;4192373;28;20092;-78
2021/07/30 05:35:34;;;;;;;19.90;11.68;;;13.60;99.90;;;;;;4193548;28;20028;-79
2021/07/30 05:37:34;;;;;;;20.23;12.30;;;13.80;99.90;;;;;;4210502;28;20035;-77
2021/07/30 05:39:35;;;;;;;20.45;12.18;;;13.90;99.90;;;;;;4210790;28;20092;-78
2021/07/30 05:41:36;;;;;;;17.77;11.57;;;14.00;99.90;;;;;;4211527;28;20067;-78
2021/07/30 05:43:40;;;;;;;17.73;12.55;;;14.10;99.90;;;;;;4193132;28;20041;-77
2021/07/30 05:45:41;;;;;;;21.60;10.90;;;14.30;99.90;;;;;;4209913;28;20109;-77
2021/07/30 05:47:42;;;;;;;21.00;11.57;;;14.50;99.90;;;;;;4209548;28;20033;-77
2021/07/30 05:49:43;;;;;;;17.33;10.43;;;14.70;99.90;;;;;;4211198;28;20028;-77
2021/07/30 05:51:44;;;;;;;18.20;11.80;;;14.80;99.90;;;;;;4210550;28;20039;-77
2021/07/30 05:53:45;;;;;;;19.05;11.20;;;15.00;99.90;;;;;;4210680;28;20422;-79
2021/07/30 05:55:45;;;;;;;23.02;12.95;;;15.10;99.90;;;;;;4210903;28;20372;-78
2021/07/30 05:57:46;;;;;;;19.10;11.43;;;15.10;99.90;;;;;;4210672;28;20114;-78
2021/07/30 05:59:48;;;;;;;18.73;11.98;;;15.30;99.90;;;;;;4211193;28;20128;-78
2021/07/30 06:01:48;;;;;;;24.52;13.02;;;15.20;99.90;;;;;;4207053;28;20021;-78
2021/07/30 06:03:49;;;;;;;15.13;10.63;;;15.30;99.90;;;;;;4189042;28;20036;-77
2021/07/30 06:05:50;;;;;;;15.98;10.82;;;15.50;99.90;;;;;;4209887;28;20023;-78
2021/07/30 06:07:50;;;;;;;20.48;11.93;;;15.50;99.90;;;;;;4191826;28;20035;-78
2021/07/30 06:09:51;;;;;;;17.50;12.55;;;15.60;99.90;;;;;;4208015;28;20024;-78
2021/07/30 06:11:52;;;;;;;19.67;11.35;;;15.60;99.90;;;;;;4205585;28;20036;-77
2021/07/30 06:13:52;;;;;;;21.52;12.23;;;15.60;99.90;;;;;;4193845;28;20081;-78
2021/07/30 06:15:53;;;;;;;12.40;9.73;;;15.60;99.90;;;;;;4189323;28;20094;-78
2021/07/30 06:17:53;;;;;;;20.00;11.68;;;15.60;99.90;;;;;;4203046;28;20381;-78
2021/07/30 06:19:54;;;;;;;21.08;12.88;;;15.80;99.90;;;;;;4190582;28;20043;-79
2021/07/30 06:21:56;;;;;;;20.48;12.45;;;15.90;99.90;;;;;;4211202;28;20048;-78
2021/07/30 06:23:57;;;;;;;21.15;12.25;;;16.00;99.90;;;;;;4190211;28;20032;-78
2021/07/30 06:25:57;;;;;;;17.35;11.57;;;16.10;99.90;;;;;;4186050;28;20350;-78
2021/07/30 06:28:00;;;;;;;16.80;11.30;;;16.30;99.90;;;;;;4210384;28;20086;-78
2021/07/30 06:30:08;;;;;;;17.13;10.70;;;16.40;99.90;;;;;;4210846;28;20499;-79
2021/07/30 06:32:09;;;;;;;20.58;11.80;;;16.60;99.90;;;;;;4202435;28;20025;-78
2021/07/30 06:34:10;;;;;;;14.90;10.13;;;16.80;99.90;;;;;;4208574;28;20051;-78
2021/07/30 06:36:11;;;;;;;16.25;10.75;;;17.00;99.90;;;;;;4193695;28;20032;-78
2021/07/30 06:38:13;;;;;;;17.45;10.52;;;17.20;99.90;;;;;;4208138;28;20072;-77
2021/07/30 06:40:15;;;;;;;15.02;11.05;;;17.40;99.90;;;;;;4192095;28;20040;-78
2021/07/30 06:42:16;;;;;;;17.08;11.40;;;17.50;99.90;;;;;;4191368;28;20025;-78
2021/07/30 06:44:17;;;;;;;17.00;10.50;;;17.60;99.90;;;;;;4211186;28;20149;-79
2021/07/30 06:46:18;;;;;;;17.55;10.98;;;17.70;99.90;;;;;;4190486;28;20025;-79
2021/07/30 06:48:19;;;;;;;17.38;10.40;;;17.80;99.90;;;;;;4210388;28;20432;-75
2021/07/30 06:50:21;;;;;;;18.80;10.35;;;17.90;99.90;;;;;;4192163;28;20051;-76
2021/07/30 06:52:21;;;;;;;18.83;10.98;;;18.10;99.90;;;;;;4194869;28;20043;-78
2021/07/30 06:54:23;;;;;;;26.55;10.38;;;18.10;99.90;;;;;;4192119;28;20479;-78
2021/07/30 06:56:24;;;;;;;17.48;9.90;;;18.10;99.90;;;;;;4193452;28;20037;-77
2021/07/30 06:58:24;;;;;;;16.48;9.50;;;18.10;99.90;;;;;;4193842;28;20397;-80
2021/07/30 07:00:26;;;;;;;19.10;9.75;;;18.20;99.90;;;;;;4214408;28;20110;-76
2021/07/30 07:02:27;;;;;;;18.77;9.15;;;18.40;99.90;;;;;;4210091;28;20498;-76
2021/07/30 07:04:28;;;;;;;14.30;9.98;;;18.50;99.90;;;;;;4215958;28;20028;-77
2021/07/30 07:06:28;;;;;;;19.05;10.20;;;18.60;99.90;;;;;;4194797;28;20101;-78
2021/07/30 07:08:29;;;;;;;18.08;8.80;;;18.60;99.90;;;;;;4213682;28;20143;-76
2021/07/30 07:10:30;;;;;;;15.63;9.02;;;18.70;99.90;;;;;;4212915;28;20097;-76
2021/07/30 07:12:30;;;;;;;16.63;9.02;;;18.80;99.90;;;;;;4196020;28;20051;-77
2021/07/30 07:14:31;;;;;;;15.18;8.32;;;18.70;99.90;;;;;;4208297;28;20032;-78
2021/07/30 07:16:32;;;;;;;20.77;9.45;;;18.70;99.90;;;;;;4207657;28;20024;-77
2021/07/30 07:18:33;;;;;;;17.50;9.43;;;18.80;99.90;;;;;;4193632;28;20566;-78
2021/07/30 07:20:33;;;;;;;14.68;9.07;;;18.90;99.90;;;;;;4211463;28;20101;-79
2021/07/30 07:22:34;;;;;;;23.60;9.75;;;18.90;99.90;;;;;;4213581;28;20123;-80
2021/07/30 07:24:36;;;;;;;14.25;8.65;;;19.10;99.90;;;;;;4195512;28;20039;-77
2021/07/30 07:26:39;;;;;;;14.48;9.43;;;19.20;99.90;;;;;;4167936;28;20033;-79
2021/07/30 07:28:39;;;;;;;17.65;8.75;;;19.20;99.90;;;;;;4186867;28;20048;-78
2021/07/30 07:30:40;;;;;;;15.40;8.93;;;19.40;99.90;;;;;;4215073;28;20025;-77
2021/07/30 07:32:40;;;;;;;20.88;9.57;;;19.60;99.90;;;;;;4211152;28;20502;-77
2021/07/30 07:34:41;;;;;;;15.48;8.90;;;19.90;99.90;;;;;;4196447;28;20048;-77
2021/07/30 07:36:42;;;;;;;19.48;10.35;;;20.10;99.90;;;;;;4192067;28;20044;-78
2021/07/30 07:38:43;;;;;;;18.65;10.18;;;20.00;99.90;;;;;;4206532;28;20024;-78
2021/07/30 07:40:45;;;;;;;13.98;10.10;;;20.10;99.90;;;;;;4190841;28;20029;-78
2021/07/30 07:42:47;;;;;;;20.92;9.95;;;20.00;99.90;;;;;;4194297;28;20056;-78
2021/07/30 07:44:51;;;;;;;12.60;9.75;;;20.10;99.90;;;;;;4208041;28;20506;-78
2021/07/30 07:46:51;;;;;;;20.85;12.15;;;20.00;99.90;;;;;;4187996;28;20058;-78
2021/07/30 07:48:52;;;;;;;14.95;10.98;;;20.00;99.90;;;;;;4210876;28;20029;-78
2021/07/30 07:50:53;;;;;;;17.95;10.50;;;20.00;99.90;;;;;;4196021;28;20032;-78
2021/07/30 07:52:53;;;;;;;18.02;12.75;;;20.10;99.90;;;;;;4192195;28;20036;-78
2021/07/30 07:54:54;;;;;;;18.13;11.77;;;20.20;99.90;;;;;;4212021;28;20051;-77
2021/07/30 07:56:57;;;;;;;20.20;12.40;;;20.40;99.90;;;;;;4209736;28;20036;-78
2021/07/30 07:58:57;;;;;;;;;;;20.60;99.90;;;;;;4193031;28;20529;-77
2021/07/30 08:01:01;;;;;;;18.75;11.63;;;20.50;99.90;;;;;;4211474;28;19912;-77
2021/07/30 08:03:03;;;;;;;19.30;11.80;;;20.60;99.90;;;;;;4194085;28;20136;-77
2021/07/30 08:05:04;;;;;;;27.80;12.30;;;20.50;99.90;;;;;;4211902;28;20031;-77
2021/07/30 08:07:09;;;;;;;19.33;11.10;;;20.40;99.90;;;;;;4193122;28;20128;-78
2021/07/30 08:09:09;;;;;;;15.48;10.77;;;20.40;99.90;;;;;;4211050;28;20544;-77
2021/07/30 08:11:10;;;;;;;22.92;11.43;;;20.20;99.90;;;;;;4193850;28;20040;-76
2021/07/30 08:13:12;;;;;;;12.63;9.57;;;20.00;99.90;;;;;;4212557;28;20567;-76
2021/07/30 08:15:13;;;;;;;14.25;8.90;;;20.00;99.90;;;;;;4190965;28;20226;-76
2021/07/30 08:17:14;;;;;;;17.17;10.13;;;20.20;99.90;;;;;;4211113;28;20032;-76
2021/07/30 08:19:16;;;;;;;17.42;8.73;;;20.40;99.90;;;;;;4210615;28;20483;-76
2021/07/30 08:21:16;;;;;;;13.27;8.98;;;20.60;99.90;;;;;;4211793;28;20036;-77
2021/07/30 08:23:17;;;;;;;16.40;9.50;;;20.60;99.90;;;;;;4193339;28;20037;-77
2021/07/30 08:25:18;;;;;;;15.15;9.43;;;20.60;99.90;;;;;;4210300;28;20456;-77
2021/07/30 08:27:19;;;;;;;13.98;9.35;;;20.60;99.90;;;;;;4210270;28;20034;-76
2021/07/30 08:29:19;;;;;;;10.57;8.25;;;20.60;99.90;;;;;;4193740;28;20028;-77
2021/07/30 08:31:24;;;;;;;17.13;9.57;;;20.70;99.90;;;;;;4189069;28;20490;-77
2021/07/30 08:33:25;;;;;;;16.98;9.40;;;20.90;99.90;;;;;;4210121;28;20028;-77
2021/07/30 08:35:25;;;;;;;13.57;7.50;;;21.10;99.90;;;;;;4208550;28;20028;-76
2021/07/30 08:37:26;;;;;;;16.90;8.95;;;21.20;99.90;;;;;;4185290;28;20029;-77
2021/07/30 08:39:27;;;;;;;16.88;9.00;;;21.50;99.90;;;;;;4188588;28;20028;-76
2021/07/30 08:41:27;;;;;;;14.93;9.18;;;21.70;99.90;;;;;;4192713;28;20112;-77
2021/07/30 08:43:28;;;;;;;16.73;8.85;;;21.60;99.90;;;;;;4187616;28;20040;-76
2021/07/30 08:45:29;;;;;;;13.40;7.90;;;21.70;99.90;;;;;;4186302;28;20479;-76
2021/07/30 08:47:30;;;;;;;12.55;8.32;;;22.00;99.90;;;;;;4209150;28;20040;-75
2021/07/30 08:49:34;;;;;;;16.00;7.97;;;22.40;99.90;;;;;;4212133;28;20020;-76
2021/07/30 08:51:41;;;;;;;11.98;7.97;;;22.50;99.90;;;;;;4211156;28;20028;-75
2021/07/30 08:53:44;;;;;;;12.15;7.72;;;22.40;99.90;;;;;;4194076;28;20025;-75
2021/07/30 08:55:44;;;;;;;11.32;7.38;;;22.20;99.90;;;;;;4210466;28;20506;-75
2021/07/30 08:57:45;;;;;;;14.82;8.30;;;22.10;99.90;;;;;;4209216;28;20028;-75
2021/07/30 08:59:46;;;;;;;16.05;7.95;;;21.90;99.90;;;;;;4210533;28;20020;-75
2021/07/30 09:01:52;;;;;;;12.90;7.55;;;21.80;99.90;;;;;;4212917;28;20135;-75
2021/07/30 09:03:53;;;;;;;12.65;7.13;;;21.90;99.90;;;;;;4209168;28;20047;-75
2021/07/30 09:05:53;;;;;;;12.48;6.13;;;21.90;99.90;;;;;;4192972;28;20025;-76
2021/07/30 09:07:55;;;;;;;13.02;6.88;;;22.00;99.90;;;;;;4188047;28;20506;-75
2021/07/30 09:09:56;;;;;;;10.10;5.38;;;22.10;99.90;;;;;;4209005;28;20016;-75
2021/07/30 09:11:59;;;;;;;10.23;5.68;;;22.20;99.90;;;;;;4213517;28;20051;-75
2021/07/30 09:14:06;;;;;;;11.20;5.07;;;22.10;99.90;;;;;;4193622;28;20044;-75
2021/07/30 09:16:10;;;;;;;10.73;6.70;;;22.30;99.90;;;;;;4183596;28;20400;-76
2021/07/30 09:18:24;;;;;;;12.68;5.45;;;22.80;99.90;;;;;;4191960;28;20044;-74
2021/07/30 09:20:25;;;;;;;10.48;5.68;;;22.90;99.90;;;;;;4186167;28;20560;-77
2021/07/30 09:22:25;;;;;;;13.98;6.05;;;23.20;99.90;;;;;;4208361;28;20042;-76
2021/07/30 09:24:33;;;;;;;11.70;6.15;;;23.20;99.90;;;;;;4213473;28;20025;-77
2021/07/30 09:26:42;;;;;;;14.57;6.30;;;23.30;99.90;;;;;;4210594;28;20028;-76
2021/07/30 09:28:56;;;;;;;11.52;5.07;;;23.50;99.90;;;;;;4205729;28;20024;-76
2021/07/30 09:30:58;;;;;;;10.20;4.57;;;23.70;99.90;;;;;;4191074;28;20043;-77
2021/07/30 09:32:59;;;;;;;13.60;6.45;;;23.90;99.90;;;;;;4192321;28;20029;-77
2021/07/30 09:34:59;;;;;;;10.63;5.63;;;24.20;99.90;;;;;;4211790;28;20128;-76
2021/07/30 09:37:01;;;;;;;8.20;5.75;;;24.20;99.90;;;;;;4208351;28;20403;-77
2021/07/30 09:39:02;;;;;;;7.13;5.18;;;24.10;99.90;;;;;;4193393;28;20032;-77
2021/07/30 09:41:11;;;;;;;9.93;5.55;;;23.90;99.90;;;;;;4210816;28;20101;-77
2021/07/30 09:43:25;;;;;;;10.90;5.88;;;24.00;99.90;;;;;;4192225;28;20040;-77
2021/07/30 09:45:32;;;;;;;13.10;6.40;;;24.20;99.90;;;;;;4193032;28;20126;-78
2021/07/30 09:47:45;;;;;;;11.45;5.88;;;24.00;99.90;;;;;;4211009;28;20035;-76
2021/07/30 09:49:56;;;;;;;10.48;5.97;;;24.00;99.90;;;;;;4191684;28;20047;-77
2021/07/30 09:51:57;;;;;;;11.48;6.53;;;24.00;99.90;;;;;;4194079;28;20060;-76
2021/07/30 09:53:59;;;;;;;9.27;5.95;;;24.00;99.90;;;;;;4213018;28;20031;-76
2021/07/30 09:55:59;;;;;;;8.15;5.30;;;23.70;99.90;;;;;;4192338;28;20363;-76
2021/07/30 09:58:01;;;;;;;9.30;5.25;;;23.70;99.90;;;;;;4191914;28;20052;-77
2021/07/30 10:00:13;;;;;;;9.18;6.10;;;24.00;99.90;;;;;;4210643;28;20396;-76
2021/07/30 10:02:16;;;;;;;16.73;6.68;;;24.20;99.90;;;;;;4207347;28;20491;-76
2021/07/30 10:04:23;;;;;;;11.18;5.65;;;24.30;99.90;;;;;;4208287;28;20032;-76
2021/07/30 10:06:27;;;;;;;8.90;6.28;;;24.40;99.90;;;;;;4212052;28;20047;-76
2021/07/30 10:08:29;;;;;;;12.35;5.97;;;24.60;99.90;;;;;;4190066;28;20115;-77
2021/07/30 10:10:30;;;;;;;8.32;5.55;;;24.50;99.90;;;;;;4209254;28;20383;-77
2021/07/30 10:12:38;;;;;;;10.25;5.88;;;24.50;99.90;;;;;;4192577;28;20035;-76
2021/07/30 10:14:40;;;;;;;12.27;6.18;;;24.50;99.90;;;;;;4207927;28;20029;-76
2021/07/30 10:16:59;;;;;;;8.93;6.50;;;24.70;99.90;;;;;;4187002;28;20035;-76
2021/07/30 10:19:00;;;;;;;10.95;7.22;;;24.70;99.90;;;;;;4186461;28;20024;-76
2021/07/30 10:21:01;;;;;;;7.90;6.55;;;24.50;99.90;;;;;;4193225;28;20523;-77